Time;durP1;ratioP1;P1;durP2;ratioP2;P2;SDS_P1;SDS_P2;PMS_P1;PMS_P2;Temp;Humidity;BMP_temperature;BMP_pressure;BME280_temperature;BME280_humidity;BME280_pressure;Samples;Min_cycle;Max_cycle;Signal;HPM_P1;HPM_P2
2023/10/24 00:01:37;;;;;;;11.27;8.67;;;10.50;99.90;;;;;;5186859;28;20451;-50
2023/10/24 00:04:07;;;;;;;17.27;9.37;;;10.50;99.90;;;;;;5187409;28;20211;-50
2023/10/24 00:06:38;;;;;;;17.30;7.60;;;10.50;99.90;;;;;;5186429;28;20184;-49
2023/10/24 00:09:09;;;;;;;11.33;8.77;;;10.50;99.90;;;;;;5181605;28;20212;-48
2023/10/24 00:11:40;;;;;;;12.67;7.80;;;10.50;99.90;;;;;;5187249;28;20215;-50
2023/10/24 00:14:11;;;;;;;11.00;8.87;;;10.50;99.90;;;;;;5183651;28;20438;-47
2023/10/24 00:16:42;;;;;;;12.50;9.60;;;10.60;99.90;;;;;;5183067;28;20561;-49
2023/10/24 00:19:12;;;;;;;11.27;9.40;;;10.50;99.90;;;;;;5184690;28;20204;-49
2023/10/24 00:21:43;;;;;;;16.30;10.23;;;10.50;99.90;;;;;;5183365;28;20588;-51
2023/10/24 00:24:16;;;;;;;11.77;9.57;;;10.50;99.90;;;;;;5186167;28;20668;-48
2023/10/24 00:26:47;;;;;;;16.53;9.90;;;10.50;99.90;;;;;;5188201;28;20247;-49
2023/10/24 00:29:18;;;;;;;9.83;8.80;;;10.50;99.90;;;;;;5185671;28;20595;-48
2023/10/24 00:31:59;;;;;;;12.57;9.50;;;10.50;99.90;;;;;;5185677;28;20466;-47
2023/10/24 00:34:29;;;;;;;13.77;10.10;;;10.50;99.90;;;;;;5183485;28;20184;-49
2023/10/24 00:37:00;;;;;;;10.53;9.40;;;10.50;99.90;;;;;;5187003;28;20796;-48
2023/10/24 00:39:31;;;;;;;10.87;9.30;;;10.50;99.90;;;;;;5182568;28;20213;-48
2023/10/24 00:42:04;;;;;;;17.30;11.37;;;10.50;99.90;;;;;;5185053;28;20185;-49
2023/10/24 00:44:35;;;;;;;16.37;10.33;;;10.50;99.90;;;;;;5184258;28;20192;-48
2023/10/24 00:47:06;;;;;;;14.30;8.87;;;10.50;99.90;;;;;;5181720;28;20451;-50
2023/10/24 00:49:40;;;;;;;13.00;10.37;;;10.50;99.90;;;;;;5182168;28;20246;-49
2023/10/24 00:52:11;;;;;;;11.30;9.43;;;10.50;99.90;;;;;;5185407;28;20586;-48
2023/10/24 00:54:45;;;;;;;13.83;9.53;;;10.60;99.90;;;;;;5186574;28;20530;-49
2023/10/24 00:57:16;;;;;;;13.50;10.00;;;10.60;99.90;;;;;;5175960;28;20212;-49
2023/10/24 00:59:47;;;;;;;14.03;9.50;;;10.60;99.90;;;;;;5181909;28;20550;-48
2023/10/24 01:02:19;;;;;;;15.50;9.87;;;10.60;99.90;;;;;;5184908;28;20447;-50
2023/10/24 01:04:54;;;;;;;13.70;10.27;;;10.60;99.90;;;;;;5180932;28;20474;-48
2023/10/24 01:07:25;;;;;;;14.67;9.40;;;10.70;99.90;;;;;;5184715;28;20438;-48
2023/10/24 01:09:55;;;;;;;16.17;9.00;;;10.70;99.90;;;;;;5185019;28;20470;-48
2023/10/24 01:12:26;;;;;;;10.77;9.13;;;10.70;99.90;;;;;;5181869;28;20197;-48
2023/10/24 01:14:57;;;;;;;22.53;9.20;;;10.70;99.90;;;;;;5184693;28;20200;-49
2023/10/24 01:17:31;;;;;;;12.97;9.93;;;10.70;99.90;;;;;;5178508;28;20847;-49
2023/10/24 01:20:02;;;;;;;17.90;10.50;;;10.80;99.90;;;;;;5181852;28;20552;-49
2023/10/24 01:22:33;;;;;;;14.57;9.70;;;10.80;99.90;;;;;;5181428;28;20503;-49
2023/10/24 01:25:11;;;;;;;10.57;9.47;;;10.80;99.90;;;;;;5184051;28;20439;-47
2023/10/24 01:27:43;;;;;;;13.17;9.83;;;10.80;99.90;;;;;;5184465;28;20207;-47
2023/10/24 01:30:14;;;;;;;13.47;9.67;;;10.80;99.90;;;;;;5183679;28;20419;-47
2023/10/24 01:32:45;;;;;;;14.70;9.20;;;10.80;99.90;;;;;;5183968;28;20474;-48
2023/10/24 01:35:16;;;;;;;15.27;9.70;;;10.80;99.90;;;;;;5179108;28;20327;-48
2023/10/24 01:37:50;;;;;;;11.43;9.67;;;10.70;99.90;;;;;;5181628;28;20447;-47
2023/10/24 01:40:21;;;;;;;15.63;9.17;;;10.70;99.90;;;;;;5186437;28;20529;-47
2023/10/24 01:42:57;;;;;;;16.00;9.37;;;10.70;99.90;;;;;;5184829;28;20443;-48
2023/10/24 01:45:27;;;;;;;15.83;10.37;;;10.70;99.90;;;;;;5183263;28;20466;-48
2023/10/24 01:48:01;;;;;;;16.60;10.30;;;10.80;99.90;;;;;;5186855;28;20447;-49
2023/10/24 01:50:32;;;;;;;15.60;11.30;;;10.80;99.90;;;;;;5184981;28;20208;-49
2023/10/24 01:53:03;;;;;;;15.97;10.00;;;10.80;99.90;;;;;;5186370;28;20445;-48
2023/10/24 01:55:33;;;;;;;15.17;9.77;;;10.80;99.90;;;;;;5181179;28;20181;-48
2023/10/24 01:58:06;;;;;;;18.73;9.70;;;10.70;99.90;;;;;;5182019;28;20192;-47
2023/10/24 02:00:37;;;;;;;17.60;10.13;;;10.80;99.90;;;;;;5183844;28;20180;-51
2023/10/24 02:03:08;;;;;;;22.80;9.63;;;10.80;99.90;;;;;;5184706;28;20431;-50
2023/10/24 02:05:39;;;;;;;20.20;9.77;;;10.90;99.90;;;;;;5185458;28;20191;-48
2023/10/24 02:08:10;;;;;;;15.57;8.60;;;10.90;99.90;;;;;;5184597;28;20203;-48
2023/10/24 02:10:41;;;;;;;22.27;10.23;;;10.90;99.90;;;;;;5183182;28;20444;-48
2023/10/24 02:13:11;;;;;;;13.63;9.73;;;10.90;99.90;;;;;;5182604;28;20184;-48
2023/10/24 02:15:42;;;;;;;13.33;9.37;;;11.00;99.90;;;;;;5196387;28;20185;-47
2023/10/24 02:18:13;;;;;;;15.90;9.13;;;11.00;99.90;;;;;;5183553;28;20204;-48
2023/10/24 02:20:46;;;;;;;13.77;8.40;;;11.00;99.90;;;;;;5185477;28;20531;-48
2023/10/24 02:23:26;;;;;;;17.13;9.93;;;11.00;99.90;;;;;;5184476;28;20689;-47
2023/10/24 02:25:56;;;;;;;26.03;9.67;;;11.00;99.90;;;;;;5182620;28;20435;-49
2023/10/24 02:28:27;;;;;;;20.37;9.90;;;11.00;99.90;;;;;;5180691;28;20469;-50
2023/10/24 02:31:01;;;;;;;17.20;9.20;;;11.00;99.90;;;;;;5184900;28;20204;-48
2023/10/24 02:33:32;;;;;;;16.03;9.37;;;11.00;99.90;;;;;;5184218;28;20191;-49
2023/10/24 02:36:07;;;;;;;17.73;9.50;;;11.00;99.90;;;;;;5180309;28;20502;-47
2023/10/24 02:38:38;;;;;;;25.73;10.33;;;11.00;99.90;;;;;;5184542;28;20482;-49
2023/10/24 02:41:08;;;;;;;12.63;8.40;;;11.00;99.90;;;;;;5184800;28;20537;-47
2023/10/24 02:43:39;;;;;;;13.40;9.20;;;11.00;99.90;;;;;;5184955;28;20184;-49
2023/10/24 02:46:10;;;;;;;16.40;9.00;;;11.00;99.90;;;;;;5179713;28;20191;-47
2023/10/24 02:48:41;;;;;;;19.13;10.43;;;11.00;99.90;;;;;;5185107;28;20216;-49
2023/10/24 02:51:12;;;;;;;11.83;9.13;;;11.00;99.90;;;;;;5186899;28;20238;-49
2023/10/24 02:53:42;;;;;;;13.30;8.67;;;11.00;99.90;;;;;;5183067;28;20588;-48
2023/10/24 02:56:13;;;;;;;11.20;9.47;;;11.00;99.90;;;;;;5185335;28;20789;-48
2023/10/24 02:58:44;;;;;;;12.33;8.73;;;11.00;99.90;;;;;;5183812;28;20537;-49
2023/10/24 03:01:15;;;;;;;15.10;9.13;;;11.00;99.90;;;;;;5183251;28;20181;-47
2023/10/24 03:03:45;;;;;;;25.30;9.67;;;11.00;99.90;;;;;;5181470;28;20283;-49
2023/10/24 03:06:18;;;;;;;11.60;9.13;;;11.00;99.90;;;;;;5186000;28;20192;-47
2023/10/24 03:08:49;;;;;;;13.37;9.70;;;11.00;99.90;;;;;;5183828;28;20295;-49
2023/10/24 03:11:22;;;;;;;18.07;9.87;;;11.00;99.90;;;;;;5183971;28;20538;-46
2023/10/24 03:13:53;;;;;;;18.40;10.10;;;11.00;99.90;;;;;;5184620;28;20188;-47
2023/10/24 03:16:24;;;;;;;18.47;10.10;;;11.00;99.90;;;;;;5184395;28;20431;-50
2023/10/24 03:18:56;;;;;;;17.47;9.10;;;11.00;99.90;;;;;;5183770;28;20451;-49
2023/10/24 03:21:26;;;;;;;17.60;9.93;;;10.90;99.90;;;;;;5178322;28;20248;-47
2023/10/24 03:23:57;;;;;;;16.10;9.97;;;10.90;99.90;;;;;;5184227;28;20459;-49
2023/10/24 03:26:28;;;;;;;14.23;10.40;;;10.90;99.90;;;;;;5182677;28;20323;-47
2023/10/24 03:28:58;;;;;;;16.50;10.47;;;10.90;99.90;;;;;;5184171;28;20211;-49
2023/10/24 03:31:30;;;;;;;14.50;9.90;;;10.90;99.90;;;;;;5185167;28;20199;-47
2023/10/24 03:34:01;;;;;;;16.83;10.37;;;10.90;99.90;;;;;;5180474;28;20207;-47
2023/10/24 03:36:31;;;;;;;15.13;9.80;;;10.90;99.90;;;;;;5182811;28;20431;-48
2023/10/24 03:39:03;;;;;;;20.30;11.20;;;10.80;99.90;;;;;;5184744;28;20200;-47
2023/10/24 03:41:33;;;;;;;16.07;10.70;;;10.80;99.90;;;;;;5180287;28;20195;-49
2023/10/24 03:44:04;;;;;;;22.37;11.00;;;10.80;99.90;;;;;;5177512;28;20439;-48
2023/10/24 03:46:37;;;;;;;20.73;9.83;;;10.80;99.90;;;;;;5181517;28;20188;-48
2023/10/24 03:49:08;;;;;;;16.43;10.90;;;10.80;99.90;;;;;;5183232;28;20696;-49
2023/10/24 03:51:39;;;;;;;17.33;10.53;;;10.80;99.90;;;;;;5183441;28;20474;-48
2023/10/24 03:54:09;;;;;;;15.10;11.07;;;10.80;99.90;;;;;;5182314;28;20207;-48
2023/10/24 03:56:43;;;;;;;14.97;9.87;;;10.80;99.90;;;;;;5181020;28;20549;-49
2023/10/24 03:59:14;;;;;;;17.40;10.57;;;10.80;99.90;;;;;;5181896;28;20555;-49
2023/10/24 04:01:45;;;;;;;15.90;10.23;;;10.80;99.90;;;;;;5185295;28;20466;-49
2023/10/24 04:04:16;;;;;;;16.60;9.57;;;10.80;99.90;;;;;;5166524;28;20482;-47
2023/10/24 04:06:47;;;;;;;18.73;9.73;;;10.80;99.90;;;;;;5186863;28;20219;-48
2023/10/24 04:09:17;;;;;;;15.80;9.57;;;10.70;99.90;;;;;;5186966;28;20204;-49
2023/10/24 04:11:48;;;;;;;17.03;9.80;;;10.80;99.90;;;;;;5185481;28;20200;-48
2023/10/24 04:14:19;;;;;;;16.33;9.90;;;10.80;99.90;;;;;;5184444;28;20613;-49
2023/10/24 04:16:50;;;;;;;16.30;10.37;;;10.80;99.90;;;;;;5185395;28;20568;-47
2023/10/24 04:19:21;;;;;;;25.30;9.43;;;10.80;99.90;;;;;;5184038;28;20828;-48
2023/10/24 04:21:52;;;;;;;25.27;10.47;;;10.70;99.90;;;;;;5183491;28;20443;-50
2023/10/24 04:24:23;;;;;;;16.77;9.30;;;10.80;99.90;;;;;;5189708;28;20212;-49
2023/10/24 04:26:54;;;;;;;17.60;10.77;;;10.70;99.90;;;;;;5183761;28;20828;-49
2023/10/24 04:29:25;;;;;;;16.30;9.87;;;10.70;99.90;;;;;;5197719;28;20272;-48
2023/10/24 04:31:55;;;;;;;17.87;11.40;;;10.70;99.90;;;;;;5187491;28;20215;-50
2023/10/24 04:34:26;;;;;;;16.57;10.17;;;10.70;99.90;;;;;;5182301;28;20595;-48
2023/10/24 04:36:57;;;;;;;17.13;10.17;;;10.60;99.90;;;;;;5186040;28;20184;-49
2023/10/24 04:39:29;;;;;;;20.87;11.40;;;10.60;99.90;;;;;;5188881;28;20238;-49
2023/10/24 04:41:59;;;;;;;23.77;12.53;;;10.60;99.90;;;;;;5184897;28;20462;-49
2023/10/24 04:44:31;;;;;;;19.70;11.80;;;10.50;99.90;;;;;;5182342;28;20487;-49
2023/10/24 04:47:02;;;;;;;16.40;11.40;;;10.50;99.90;;;;;;5182290;28;20669;-48
2023/10/24 04:49:35;;;;;;;31.73;12.70;;;10.50;99.90;;;;;;5182983;28;20515;-48
2023/10/24 04:52:06;;;;;;;30.70;12.13;;;10.40;99.90;;;;;;5182870;28;20213;-48
2023/10/24 04:54:36;;;;;;;18.03;10.83;;;10.40;99.90;;;;;;5188730;28;20426;-49
2023/10/24 04:57:07;;;;;;;20.60;12.43;;;10.40;99.90;;;;;;5182497;28;20642;-48
2023/10/24 04:59:38;;;;;;;21.30;12.30;;;10.40;99.90;;;;;;5181642;28;20211;-49
2023/10/24 05:02:08;;;;;;;19.47;10.80;;;10.40;99.90;;;;;;5180874;28;20180;-52
2023/10/24 05:04:39;;;;;;;20.90;12.47;;;10.40;99.90;;;;;;5168752;28;20192;-49
2023/10/24 05:07:10;;;;;;;15.50;10.73;;;10.40;99.90;;;;;;5185224;28;20181;-48
2023/10/24 05:09:40;;;;;;;26.73;13.83;;;10.30;99.90;;;;;;5183164;28;20200;-49
2023/10/24 05:12:11;;;;;;;20.93;13.73;;;10.40;99.90;;;;;;5186489;28;20215;-48
2023/10/24 05:14:42;;;;;;;24.00;14.20;;;10.30;99.90;;;;;;5186250;28;20214;-47
2023/10/24 05:17:14;;;;;;;22.30;15.03;;;10.30;99.90;;;;;;5185066;28;20282;-50
2023/10/24 05:19:45;;;;;;;27.53;14.00;;;10.30;99.90;;;;;;5183346;28;20204;-49
2023/10/24 05:22:16;;;;;;;22.63;14.67;;;10.30;99.90;;;;;;5185443;28;20446;-48
2023/10/24 05:24:47;;;;;;;25.13;14.03;;;10.20;99.90;;;;;;5186027;28;20641;-49
2023/10/24 05:27:17;;;;;;;28.30;16.13;;;10.20;99.90;;;;;;5181788;28;20204;-50
2023/10/24 05:29:48;;;;;;;31.93;15.20;;;10.20;99.90;;;;;;5186030;28;20204;-49
2023/10/24 05:32:19;;;;;;;22.80;15.53;;;10.10;99.90;;;;;;5185237;28;20303;-49
2023/10/24 05:34:52;;;;;;;28.43;13.57;;;10.20;99.90;;;;;;5184329;28;20173;-50
2023/10/24 05:37:23;;;;;;;18.87;15.03;;;10.10;99.90;;;;;;5180543;28;20920;-51
2023/10/24 05:39:54;;;;;;;22.57;15.57;;;10.10;99.90;;;;;;5197102;28;20460;-49
2023/10/24 05:42:25;;;;;;;21.83;15.73;;;10.10;99.90;;;;;;5187276;28;20207;-49
2023/10/24 05:44:55;;;;;;;25.03;16.07;;;10.10;99.90;;;;;;5185507;28;20186;-51
2023/10/24 05:47:26;;;;;;;23.87;16.70;;;10.10;99.90;;;;;;5184720;28;20187;-49
2023/10/24 05:49:56;;;;;;;23.90;15.93;;;10.10;99.90;;;;;;5182840;28;20212;-49
2023/10/24 05:52:27;;;;;;;24.60;15.60;;;10.10;99.90;;;;;;5182625;28;20220;-49
2023/10/24 05:54:58;;;;;;;21.03;15.63;;;10.10;99.90;;;;;;5183753;28;20238;-49
2023/10/24 05:57:29;;;;;;;34.23;16.90;;;10.10;99.90;;;;;;5185128;28;20263;-50
2023/10/24 06:00:01;;;;;;;27.00;15.90;;;10.10;99.90;;;;;;5180073;28;20184;-50
2023/10/24 06:02:35;;;;;;;32.73;16.90;;;10.20;99.90;;;;;;5184122;28;20439;-48
2023/10/24 06:05:06;;;;;;;29.03;15.23;;;10.10;99.90;;;;;;5183553;28;20470;-48
2023/10/24 06:07:37;;;;;;;28.07;16.40;;;10.20;99.90;;;;;;5176038;28;20471;-49
2023/10/24 06:10:08;;;;;;;35.37;15.30;;;10.20;99.90;;;;;;5178450;28;20444;-48
2023/10/24 06:12:39;;;;;;;31.13;15.43;;;10.20;99.90;;;;;;5182929;28;21021;-49
2023/10/24 06:15:13;;;;;;;25.67;15.70;;;10.20;99.90;;;;;;5180293;28;20439;-48
2023/10/24 06:17:44;;;;;;;28.43;15.90;;;10.20;99.90;;;;;;5180889;28;20648;-49
2023/10/24 06:20:14;;;;;;;32.50;16.80;;;10.20;99.90;;;;;;5174554;28;20538;-48
2023/10/24 06:22:45;;;;;;;29.53;16.83;;;10.20;99.90;;;;;;5173314;28;20782;-49
2023/10/24 06:25:23;;;;;;;28.23;16.60;;;10.20;99.90;;;;;;5183594;28;20242;-49
2023/10/24 06:27:54;;;;;;;26.97;17.13;;;10.20;99.90;;;;;;5179234;28;20204;-49
2023/10/24 06:30:25;;;;;;;25.33;16.00;;;10.20;99.90;;;;;;5184180;28;20439;-51
2023/10/24 06:32:55;;;;;;;33.90;17.73;;;10.20;99.90;;;;;;5182586;28;20208;-49
2023/10/24 06:35:26;;;;;;;31.57;17.03;;;10.30;99.90;;;;;;5179590;28;20235;-49
2023/10/24 06:37:57;;;;;;;26.83;16.20;;;10.30;99.90;;;;;;5184183;28;20279;-49
2023/10/24 06:40:27;;;;;;;27.50;16.70;;;10.30;99.90;;;;;;5183002;28;20593;-49
2023/10/24 06:42:58;;;;;;;25.97;17.40;;;10.30;99.90;;;;;;5183867;28;20188;-50
2023/10/24 06:45:29;;;;;;;21.07;13.33;;;10.30;99.90;;;;;;5184802;28;20230;-49
2023/10/24 06:48:06;;;;;;;27.73;13.83;;;10.40;99.90;;;;;;5179628;28;20971;-49
2023/10/24 06:50:40;;;;;;;23.57;13.20;;;10.40;99.90;;;;;;5181600;28;20190;-48
2023/10/24 06:53:12;;;;;;;21.90;12.73;;;10.50;99.90;;;;;;5182047;28;20996;-48
2023/10/24 06:55:42;;;;;;;18.93;11.97;;;10.50;99.90;;;;;;5178830;28;20490;-49
2023/10/24 06:58:13;;;;;;;16.80;12.17;;;10.60;99.90;;;;;;5183402;28;20534;-49
2023/10/24 07:00:45;;;;;;;17.10;10.70;;;10.60;99.90;;;;;;5180110;28;20185;-48
2023/10/24 07:03:16;;;;;;;15.57;10.40;;;10.70;99.90;;;;;;5182915;28;20439;-48
2023/10/24 07:05:51;;;;;;;19.53;10.60;;;10.70;99.90;;;;;;5182315;28;20465;-50
2023/10/24 07:08:22;;;;;;;18.50;11.23;;;10.80;99.90;;;;;;5182046;28;20685;-49
2023/10/24 07:10:53;;;;;;;26.20;11.97;;;10.80;99.90;;;;;;5182239;28;20463;-48
2023/10/24 07:13:23;;;;;;;21.13;11.80;;;10.80;99.90;;;;;;5182674;28;20650;-49
2023/10/24 07:15:54;;;;;;;17.10;11.43;;;10.90;99.90;;;;;;5185006;28;20318;-49
2023/10/24 07:18:25;;;;;;;15.63;10.40;;;11.00;99.90;;;;;;5166614;28;20196;-49
2023/10/24 07:20:57;;;;;;;15.10;9.60;;;11.00;99.90;;;;;;5182625;28;20668;-50
2023/10/24 07:23:28;;;;;;;14.47;10.10;;;11.00;99.90;;;;;;5182808;28;20535;-49
2023/10/24 07:25:59;;;;;;;17.97;10.57;;;11.00;99.90;;;;;;5183011;28;20435;-50
2023/10/24 07:28:30;;;;;;;13.97;10.03;;;11.00;99.90;;;;;;5182519;28;20288;-48
2023/10/24 07:31:00;;;;;;;17.70;11.50;;;11.10;99.90;;;;;;5184289;28;20196;-48
2023/10/24 07:33:31;;;;;;;18.80;10.13;;;11.10;99.90;;;;;;5180490;28;20692;-49
2023/10/24 07:36:09;;;;;;;21.93;10.63;;;11.10;99.90;;;;;;5183739;28;20597;-50
2023/10/24 07:38:40;;;;;;;14.20;10.23;;;11.20;99.90;;;;;;5183186;28;20228;-47
2023/10/24 07:41:11;;;;;;;12.70;9.70;;;11.20;99.90;;;;;;5187607;28;20471;-48
2023/10/24 07:43:42;;;;;;;30.23;10.17;;;11.30;99.90;;;;;;5185457;28;20910;-48
2023/10/24 07:46:12;;;;;;;15.10;9.60;;;11.30;99.90;;;;;;5187797;28;20219;-50
2023/10/24 07:48:44;;;;;;;17.53;9.80;;;11.40;99.90;;;;;;5189601;28;20451;-50
2023/10/24 07:51:15;;;;;;;14.50;9.00;;;11.40;99.90;;;;;;5184351;28;20196;-49
2023/10/24 07:53:45;;;;;;;18.67;9.80;;;11.40;99.90;;;;;;5187692;28;20805;-51
2023/10/24 07:56:16;;;;;;;13.83;9.80;;;11.40;99.90;;;;;;5188616;28;20184;-49
2023/10/24 07:58:47;;;;;;;14.83;10.10;;;11.40;99.90;;;;;;5188056;28;20223;-50
2023/10/24 08:01:20;;;;;;;12.97;9.87;;;11.50;99.90;;;;;;5175508;28;20829;-49
2023/10/24 08:03:51;;;;;;;15.13;10.23;;;11.50;99.90;;;;;;5188461;28;20549;-49
2023/10/24 08:06:22;;;;;;;18.03;9.97;;;11.50;99.90;;;;;;5182396;28;20444;-50
2023/10/24 08:08:58;;;;;;;14.10;9.30;;;11.50;99.90;;;;;;5195801;28;20727;-49
2023/10/24 08:11:29;;;;;;;19.63;9.20;;;11.50;99.90;;;;;;5187298;28;20219;-49
2023/10/24 08:13:59;;;;;;;16.53;10.57;;;11.50;99.90;;;;;;5184087;28;20439;-49
2023/10/24 08:16:31;;;;;;;13.30;10.03;;;11.40;99.90;;;;;;5187221;28;20189;-49
2023/10/24 08:19:03;;;;;;;18.87;10.70;;;11.40;99.90;;;;;;5187980;28;20598;-49
2023/10/24 08:21:34;;;;;;;21.93;10.50;;;11.40;99.90;;;;;;5185736;28;20447;-49
2023/10/24 08:24:05;;;;;;;14.97;10.80;;;11.40;99.90;;;;;;5186563;28;20967;-51
2023/10/24 08:26:38;;;;;;;17.17;11.10;;;11.40;99.90;;;;;;5185133;28;20193;-48
2023/10/24 08:29:08;;;;;;;22.77;10.77;;;11.30;99.90;;;;;;5178399;28;20459;-49
2023/10/24 08:31:39;;;;;;;20.87;10.87;;;11.30;99.90;;;;;;5166027;28;20458;-48
2023/10/24 08:34:12;;;;;;;27.40;11.73;;;11.30;99.90;;;;;;5187369;28;20222;-50
2023/10/24 08:36:43;;;;;;;18.20;10.90;;;11.30;99.90;;;;;;5186021;28;20340;-49
2023/10/24 08:39:14;;;;;;;21.27;11.20;;;11.40;99.90;;;;;;5185465;28;20522;-50
2023/10/24 08:41:48;;;;;;;17.13;10.53;;;11.40;99.90;;;;;;5184889;28;20520;-48
2023/10/24 08:44:21;;;;;;;16.77;10.33;;;11.40;99.90;;;;;;5185513;28;20655;-50
2023/10/24 08:46:53;;;;;;;14.70;10.47;;;11.50;99.90;;;;;;5186437;28;20428;-49
2023/10/24 08:49:25;;;;;;;22.30;11.00;;;11.40;99.90;;;;;;5186487;28;20470;-49
2023/10/24 08:51:55;;;;;;;17.40;10.70;;;11.50;99.90;;;;;;5185023;28;20996;-49
2023/10/24 08:54:27;;;;;;;18.33;10.97;;;11.50;99.90;;;;;;5187152;28;20447;-49
2023/10/24 08:57:02;;;;;;;25.93;11.30;;;11.60;99.90;;;;;;5185009;28;20187;-49
2023/10/24 08:59:35;;;;;;;27.33;10.67;;;11.60;99.90;;;;;;5183516;28;20994;-50
2023/10/24 09:02:10;;;;;;;21.57;11.40;;;11.70;99.90;;;;;;5184017;28;20462;-50
2023/10/24 09:04:41;;;;;;;15.27;10.80;;;11.70;99.90;;;;;;5186153;28;20482;-48
2023/10/24 09:07:12;;;;;;;19.60;10.23;;;11.70;99.90;;;;;;5185111;28;20796;-50
2023/10/24 09:09:43;;;;;;;23.00;11.97;;;11.80;99.90;;;;;;5186475;28;20286;-49
2023/10/24 09:12:15;;;;;;;17.67;11.10;;;11.90;99.90;;;;;;5186962;28;20747;-49
2023/10/24 09:14:47;;;;;;;22.00;11.80;;;12.00;99.90;;;;;;5181735;28;20262;-50
2023/10/24 09:17:18;;;;;;;16.67;11.50;;;12.00;99.90;;;;;;5182593;28;21077;-48
2023/10/24 09:19:49;;;;;;;18.53;11.33;;;12.00;99.90;;;;;;5181894;28;20562;-50
2023/10/24 09:22:19;;;;;;;18.03;10.33;;;12.10;99.90;;;;;;5186471;28;20423;-50
2023/10/24 09:24:50;;;;;;;16.67;10.10;;;12.10;99.90;;;;;;5185042;28;20518;-51
2023/10/24 09:27:27;;;;;;;17.33;11.77;;;12.20;99.90;;;;;;5184081;28;20204;-50
2023/10/24 09:29:58;;;;;;;13.87;9.70;;;12.30;99.90;;;;;;5179265;28;20450;-49
2023/10/24 09:32:29;;;;;;;14.50;10.43;;;12.30;99.90;;;;;;5181272;28;20762;-48
2023/10/24 09:35:03;;;;;;;25.63;12.03;;;12.40;99.90;;;;;;5182739;28;20185;-50
2023/10/24 09:37:37;;;;;;;22.90;10.97;;;12.40;99.90;;;;;;5185270;28;20245;-50
2023/10/24 09:40:08;;;;;;;24.00;11.40;;;12.40;99.90;;;;;;5184496;28;20423;-51
2023/10/24 09:42:41;;;;;;;21.20;10.07;;;12.40;99.90;;;;;;5184420;28;20457;-50
2023/10/24 09:45:13;;;;;;;18.37;11.23;;;12.40;99.90;;;;;;5163110;28;20951;-51
2023/10/24 09:47:45;;;;;;;25.17;14.30;;;12.40;99.90;;;;;;5181377;28;20485;-50
2023/10/24 09:50:17;;;;;;;21.50;11.50;;;12.40;99.90;;;;;;5180434;28;20956;-50
2023/10/24 09:52:49;;;;;;;21.20;13.20;;;12.30;99.90;;;;;;5196970;28;21113;-50
2023/10/24 09:55:36;;;;;;;27.87;10.27;;;12.30;99.90;;;;;;5151611;28;20467;-50
2023/10/24 09:58:09;;;;;;;19.07;11.50;;;12.30;99.90;;;;;;5184619;28;21018;-48
2023/10/24 10:00:41;;;;;;;19.50;12.27;;;12.30;99.90;;;;;;5184141;28;20438;-49
2023/10/24 10:03:13;;;;;;;21.37;12.03;;;12.40;99.90;;;;;;5182334;28;20469;-50
2023/10/24 10:05:48;;;;;;;20.03;10.53;;;12.40;99.90;;;;;;5182540;28;20438;-49
2023/10/24 10:08:23;;;;;;;21.00;11.57;;;12.50;99.90;;;;;;5177074;28;20523;-49
2023/10/24 10:10:54;;;;;;;19.47;10.97;;;12.50;99.90;;;;;;5181366;28;20443;-50
2023/10/24 10:13:30;;;;;;;21.77;11.40;;;12.50;99.90;;;;;;5185974;28;20655;-50
2023/10/24 10:16:17;;;;;;;20.40;11.13;;;12.50;99.90;;;;;;5183373;28;20192;-48
2023/10/24 10:19:17;;;;;;;31.17;11.17;;;12.40;99.90;;;;;;5179616;28;20459;-49
2023/10/24 10:21:54;;;;;;;18.63;10.60;;;12.40;99.90;;;;;;5183891;28;20466;-48
2023/10/24 10:24:30;;;;;;;19.50;11.40;;;12.40;99.90;;;;;;5182709;28;20493;-50
2023/10/24 10:27:22;;;;;;;27.93;11.20;;;12.40;99.90;;;;;;5185063;28;20439;-49
2023/10/24 10:30:14;;;;;;;23.80;11.33;;;12.50;99.90;;;;;;5181430;28;21002;-50
2023/10/24 10:32:52;;;;;;;18.43;10.90;;;12.50;99.90;;;;;;5182009;28;20463;-50
2023/10/24 10:35:56;;;;;;;16.73;10.33;;;12.60;99.90;;;;;;5183056;28;20985;-48
2023/10/24 10:38:49;;;;;;;16.13;10.70;;;12.70;99.90;;;;;;5183308;28;20545;-50
2023/10/24 10:41:23;;;;;;;14.73;10.83;;;12.70;99.90;;;;;;5179769;28;20451;-50
2023/10/24 10:43:55;;;;;;;15.53;9.70;;;12.70;99.90;;;;;;5182993;28;20419;-51
2023/10/24 10:46:27;;;;;;;16.53;9.93;;;12.60;99.90;;;;;;5184319;28;20766;-49
2023/10/24 10:49:01;;;;;;;15.53;11.13;;;12.50;99.90;;;;;;5182980;28;20860;-50
2023/10/24 10:51:33;;;;;;;20.50;10.93;;;12.60;99.90;;;;;;5180445;28;20818;-49
2023/10/24 10:54:25;;;;;;;24.30;10.77;;;12.60;99.90;;;;;;5183225;28;20485;-48
2023/10/24 10:57:01;;;;;;;22.13;11.57;;;12.70;99.90;;;;;;5182285;28;20455;-50
2023/10/24 10:59:53;;;;;;;16.10;10.10;;;12.80;99.90;;;;;;5178446;28;20993;-50
2023/10/24 11:02:42;;;;;;;15.20;10.20;;;12.90;99.90;;;;;;5183544;28;20442;-49
2023/10/24 11:05:35;;;;;;;16.90;10.10;;;13.10;99.90;;;;;;5167726;28;20435;-50
2023/10/24 11:08:11;;;;;;;18.73;10.70;;;13.10;99.90;;;;;;5182100;28;20456;-50
2023/10/24 11:10:52;;;;;;;15.97;10.10;;;13.20;99.90;;;;;;5183958;28;20477;-48
2023/10/24 11:13:43;;;;;;;16.40;9.90;;;13.30;99.90;;;;;;5187629;28;20791;-49
2023/10/24 11:16:14;;;;;;;13.73;9.80;;;13.30;99.90;;;;;;5184000;28;20427;-49
2023/10/24 11:18:45;;;;;;;15.10;10.17;;;13.30;99.90;;;;;;5187677;28;22039;-48
2023/10/24 11:21:17;;;;;;;23.70;10.87;;;13.50;99.90;;;;;;5188298;28;20451;-48
2023/10/24 11:23:48;;;;;;;15.87;9.47;;;13.50;99.90;;;;;;5185033;28;20186;-50
2023/10/24 11:26:19;;;;;;;20.47;9.67;;;13.60;99.90;;;;;;5202021;28;20451;-50
2023/10/24 11:28:51;;;;;;;31.13;10.47;;;13.70;99.90;;;;;;5189521;28;20772;-50
2023/10/24 11:31:23;;;;;;;15.73;9.27;;;13.70;99.90;;;;;;5186487;28;20748;-49
2023/10/24 11:33:54;;;;;;;23.87;10.97;;;13.80;99.90;;;;;;5186760;28;20439;-50
2023/10/24 11:36:27;;;;;;;17.70;10.60;;;13.90;99.90;;;;;;5188668;28;20530;-49
2023/10/24 11:38:58;;;;;;;14.97;10.20;;;13.90;99.90;;;;;;5179372;28;20193;-49
2023/10/24 11:41:28;;;;;;;16.47;10.90;;;13.80;99.90;;;;;;5168622;28;20444;-49
2023/10/24 11:43:59;;;;;;;15.97;10.20;;;13.70;99.90;;;;;;5188240;28;20437;-51
2023/10/24 11:46:30;;;;;;;15.87;9.80;;;13.50;99.90;;;;;;5188034;28;20184;-49
2023/10/24 11:49:00;;;;;;;14.40;9.87;;;13.40;99.90;;;;;;5185317;28;20219;-51
2023/10/24 11:51:31;;;;;;;19.60;11.13;;;13.30;99.90;;;;;;5185163;28;20579;-50
2023/10/24 11:54:07;;;;;;;13.40;10.30;;;13.10;99.90;;;;;;5185687;28;20215;-49
2023/10/24 11:56:38;;;;;;;27.57;11.03;;;13.00;99.90;;;;;;5168530;28;20708;-51
2023/10/24 11:59:11;;;;;;;17.63;10.43;;;13.00;99.90;;;;;;5185998;28;20451;-49
2023/10/24 12:01:45;;;;;;;17.53;10.60;;;13.10;99.90;;;;;;5184499;28;20466;-49
2023/10/24 12:04:15;;;;;;;22.93;11.17;;;13.20;99.90;;;;;;5186428;28;20565;-50
2023/10/24 12:06:46;;;;;;;19.57;10.50;;;13.30;99.90;;;;;;5182341;28;20466;-50
2023/10/24 12:09:18;;;;;;;16.47;10.77;;;13.30;99.90;;;;;;5184361;28;20512;-50
2023/10/24 12:11:48;;;;;;;17.20;11.17;;;13.30;99.90;;;;;;5182324;28;20212;-50
2023/10/24 12:14:19;;;;;;;15.67;9.90;;;13.30;99.90;;;;;;5185094;28;20443;-49
2023/10/24 12:16:51;;;;;;;15.33;10.67;;;13.40;99.90;;;;;;5185672;28;20242;-50
2023/10/24 12:19:22;;;;;;;21.93;11.20;;;13.40;99.90;;;;;;5181045;28;20274;-49
2023/10/24 12:21:56;;;;;;;19.53;10.57;;;13.30;99.90;;;;;;5194993;28;20431;-49
2023/10/24 12:24:26;;;;;;;16.67;10.10;;;13.30;99.90;;;;;;5183991;28;20196;-49
2023/10/24 12:26:57;;;;;;;17.33;11.30;;;13.20;99.90;;;;;;5184083;28;20448;-49
2023/10/24 12:29:28;;;;;;;21.73;11.63;;;13.10;99.90;;;;;;5183184;28;20340;-49
2023/10/24 12:31:58;;;;;;;22.70;10.90;;;13.00;99.90;;;;;;5183709;28;20590;-51
2023/10/24 12:34:29;;;;;;;22.30;12.37;;;12.80;99.90;;;;;;5200063;28;20606;-49
2023/10/24 12:37:02;;;;;;;18.10;11.90;;;12.70;99.90;;;;;;5184933;28;20180;-50
2023/10/24 12:39:32;;;;;;;26.63;13.50;;;12.70;99.90;;;;;;5183527;28;20212;-50
2023/10/24 12:42:03;;;;;;;17.83;13.33;;;12.60;99.90;;;;;;5192865;28;20979;-50
2023/10/24 12:44:34;;;;;;;21.63;12.00;;;12.60;99.90;;;;;;5181538;28;20239;-50
2023/10/24 12:47:05;;;;;;;20.53;12.70;;;12.60;99.90;;;;;;5187876;28;20177;-50
2023/10/24 12:49:36;;;;;;;26.97;12.13;;;12.60;99.90;;;;;;5185267;28;20212;-49
2023/10/24 12:52:07;;;;;;;21.37;13.23;;;12.70;99.90;;;;;;5185167;28;20470;-49
2023/10/24 12:54:38;;;;;;;21.03;11.30;;;12.70;99.90;;;;;;5185109;28;20435;-49
2023/10/24 12:57:08;;;;;;;17.37;12.50;;;12.80;99.90;;;;;;5184587;28;20283;-50